Friday, January 19, 2018, 1:48 AM GMT
Back to Local

CYFC, Fredericton, N. B.

Location: , , Canada Lat: 45.867
Local Time: 1:48 AM GMT ( 1:48 GMT) Lon: -66.533
Time Zone: GMT Elev: 55 ft

Show me the last for .
Show Decoded

2018-01-19 01:00 METAR CYFC 190100Z AUTO 19003KT 9SM OVC032 M09/M10 A2983 RMK SLP105 =
2018-01-19 00:00 METAR CYFC 190000Z AUTO 25005KT 9SM BKN034 M09/M10 A2981 RMK SLP098 =
2018-01-18 23:00 METAR CYFC 182300Z AUTO 00000KT 9SM BKN036 M09/M10 A2980 RMK SLP096 =
2018-01-18 22:00 METAR CYFC 182200Z AUTO 21005KT 9SM CLR M07/M08 A2979 RMK SLP091 =
2018-01-18 21:00 METAR CYFC 182100Z AUTO 20004KT 9SM CLR M06/M08 A2979 RMK SLP090 =
2018-01-18 20:00 METAR CYFC 182000Z AUTO 27004KT 230V290 9SM BKN032 M03/M07 A2979 RMK SLP091 =
2018-01-18 19:24 METAR CYFC 181924Z AUTO 30007KT 260V320 9SM SCT024 M03/M07 A2978 RMK SLP087 =
2018-01-18 19:10 METAR CYFC 181910Z AUTO 30005KT 9SM BKN024 M03/M07 A2978 RMK SLP086 =
2018-01-18 19:00 METAR CYFC 181900Z AUTO 28005KT 240V310 9SM BKN026 M03/M07 A2978 RMK SLP086 =
2018-01-18 18:00 METAR CYFC 181800Z AUTO 29005KT 240V330 9SM BKN026 M03/M07 A2979 RMK SLP092 =
2018-01-18 17:54 METAR CYFC 181754Z AUTO 29007KT 240V320 9SM BKN026 M03/M07 A2979 RMK SLP092 =
2018-01-18 17:53 METAR CYFC 181753Z AUTO 27005KT 240V320 9SM BKN024 M03/M07 A2979 RMK SLP092 =
2018-01-18 17:37 METAR CYFC 181737Z AUTO 27007KT 9SM SCT022 M04/M07 A2979 RMK SLP091 =
2018-01-18 17:16 METAR CYFC 181716Z AUTO 27008KT 240V300 9SM BKN024 M04/M08 A2980 RMK SLP093 =
2018-01-18 17:14 METAR CYFC 181714Z AUTO 26008KT 240V300 9SM SCT024 M04/M08 A2980 RMK SLP095 =
2018-01-18 17:10 METAR CYFC 181710Z AUTO 27008KT 9SM BKN024 M03/M07 A2980 RMK SLP096
2018-01-18 17:00 METAR CYFC 181700Z AUTO 28006KT 230V320 9SM SCT024 M03/M07 A2981 RMK SLP098 =
2018-01-18 16:00 METAR CYFC 181600Z AUTO 22011KT 9SM FEW023 M05/M09 A2984 RMK PRESFR SLP108 =
2018-01-18 15:49 METAR CYFC 181549Z AUTO 27004KT 220V290 9SM SCT023 M05/M08 A2986 RMK SLP113 =
2018-01-18 15:00 METAR CYFC 181500Z AUTO 29004KT 260V330 9SM OVC019 M05/M08 A2987 RMK SLP119 =
2018-01-18 14:36 METAR CYFC 181436Z AUTO 29009G15KT 9SM OVC019 M05/M08 A2988 RMK SLP120 =
2018-01-18 14:19 METAR CYFC 181419Z AUTO 30013KT 250V320 9SM -SN BKN017 M05/M07 A2987 RMK SLP119
                 =
2018-01-18 14:02 METAR CYFC 181402Z AUTO 27005KT 220V290 9SM BKN017 M05/M06 A2988 RMK SLP120 =
2018-01-18 14:00 METAR CYFC 181400Z AUTO 26005KT 9SM SCT017 M05/M06 A2988 RMK SLP120 =
2018-01-18 13:00 METAR CYFC 181300Z AUTO 21003KT 9SM SCT017 OVC041 M06/M06 A2987 RMK SLP117 =
2018-01-18 12:24 METAR CYFC 181224Z AUTO 18004KT 9SM SCT017 BKN031 OVC041 M06/M06 A2987 RMK
                 SLP117 =
2018-01-18 12:20 METAR CYFC 181220Z AUTO 18005KT 9SM BKN019 OVC031 M06/M06 A2987 RMK SLP118 =
2018-01-18 12:12 METAR CYFC 181212Z AUTO 18004KT 9SM SCT019 OVC031 M05/M06 A2987 RMK SLP118 =
2018-01-18 12:00 METAR CYFC 181200Z AUTO 17005KT 9SM OVC019 M05/M06 A2987 RMK SLP119 =
2018-01-18 11:00 METAR CYFC 181100Z AUTO 20002KT 9SM OVC015 M06/M06 A2987 RMK SLP117 =
2018-01-18 10:00 METAR CYFC 181000Z AUTO 28004KT 9SM BKN015 OVC020 M06/M06 A2988 RMK SLP120 =
2018-01-18 09:00 METAR CYFC 180900Z AUTO 18002KT 9SM OVC020 M06/M06 A2989 RMK PRESFR SLP124 =
2018-01-18 08:00 METAR CYFC 180800Z AUTO VRB02KT 9SM OVC017 M06/M07 A2991 RMK SLP131 =
2018-01-18 07:37 METAR CYFC 180737Z AUTO 26002KT 9SM OVC017 M06/M07 A2992 RMK SLP135 =
2018-01-18 07:16 METAR CYFC 180716Z AUTO 00000KT 9SM -SN BKN015 OVC038 M06/M07 A2993 RMK SLP137 =
2018-01-18 07:00 METAR CYFC 180700Z AUTO 00000KT 9SM -SN SCT015 OVC036 M06/M07 A2993 RMK SLP140 =
2018-01-18 06:59 METAR CYFC 180659Z AUTO 00000KT 7SM -SN SCT015 OVC036 M06/M07 A2993 RMK SLP140 =
2018-01-18 06:43 METAR CYFC 180643Z AUTO 31005KT 5SM -SN OVC036 M06/M07 A2994 RMK SLP141 =
2018-01-18 06:40 METAR CYFC 180640Z AUTO 31005KT 6SM -SN OVC036 M06/M07 A2994 RMK SLP141 =
2018-01-18 06:36 METAR CYFC 180636Z AUTO 31005KT 5SM -SN OVC036 M06/M07 A2994 RMK SLP141 =
2018-01-18 06:12 METAR CYFC 180612Z AUTO 30006KT 7SM -SN OVC036 M06/M07 A2994 RMK SLP142 =
2018-01-18 06:01 METAR CYFC 180601Z AUTO 33006KT 9SM BKN038 M06/M07 A2993 RMK SLP139 =
2018-01-18 06:00 METAR CYFC 180600Z AUTO 33006KT 9SM -SN BKN038 OVC085 M06/M07 A2993 RMK SLP139 =
2018-01-18 05:51 METAR CYFC 180551Z AUTO 32007KT 9SM -SN BKN038 OVC085 M06/M07 A2994 RMK SLP141 =
2018-01-18 05:28 METAR CYFC 180528Z AUTO 32005KT 9SM SCT014 OVC085 M06/M07 A2995 RMK PRESFR
                 SLP144 =
2018-01-18 05:17 METAR CYFC 180517Z AUTO 31005KT 9SM -SN BKN014 OVC085 M06/M07 A2996 RMK SLP148 =
2018-01-18 05:00 METAR CYFC 180500Z AUTO 32007KT 8SM -SN BKN080 OVC110 M06/M06 A2997 RMK SLP152 =
2018-01-18 04:52 METAR CYFC 180452Z AUTO 31006KT 6SM -SN FEW028 OVC080 M06/M06 A2997 RMK SLP153 =
2018-01-18 04:29 METAR CYFC 180429Z AUTO 31007KT 3SM -SN OVC030 M06/M06 A2999 RMK SLP157 =
2018-01-18 04:01 METAR CYFC 180401Z AUTO 31006KT 2SM -SN OVC026 M05/M06 A2999 RMK VIS VRB 1 1/4-3
                 SLP159 =
2018-01-18 04:00 METAR CYFC 180400Z AUTO 32006KT 2SM -SN OVC024 M05/M06 A2999 RMK VIS VRB 1 1/4-3
                 SLP158 =
2018-01-18 03:59 METAR CYFC 180359Z AUTO 32006KT 2SM -SN OVC024 M05/M06 A2999 RMK VIS VRB 1 1/4-3
                 SLP158 =
2018-01-18 03:11 METAR CYFC 180311Z AUTO 33005KT 1 1/4SM -SN OVC024 M05/M06 A3001 RMK VIS VRB
                 3/4-2 1/2 SLP165 =
2018-01-18 03:00 METAR CYFC 180300Z AUTO 32005KT 1 1/2SM -SN OVC026 M05/M06 A3001 RMK VIS VRB 1-2
                 1/2 SLP167 =
2018-01-18 02:59 METAR CYFC 180259Z AUTO 32005KT 1 1/2SM -SN OVC028 M05/M06 A3001 RMK VIS VRB 1-2
                 1/2 SLP167 =
2018-01-18 02:48 METAR CYFC 180248Z AUTO 33005KT 2 1/2SM -SN OVC028 M05/M06 A3001 RMK VIS VRB 1-3
                 SLP167 =
2018-01-18 02:43 METAR CYFC 180243Z AUTO 33006KT 3SM -SN OVC026 M05/M06 A3001 RMK SLP167 =
2018-01-18 02:38 METAR CYFC 180238Z AUTO 32006KT 3SM -SN OVC024 M05/M06 A3002 RMK SLP169 =
2018-01-18 02:33 METAR CYFC 180233Z AUTO 32006KT 2 1/4SM -SN OVC022 M05/M06 A3002 RMK VIS VRB 1-3
                 SLP170 =
2018-01-18 02:00 METAR CYFC 180200Z AUTO 33004KT 1 1/4SM -SN OVC022 M05/M06 A3004 RMK VIS VRB
                 3/4-2 SLP175 =

Support USWX by starting your Amazon purchase here.